Wetterdaten: aktuell Mittwoch, 06.12.2023 09:40
Datum Zeit Temp. A. Feuchte A. Luftdruck Regen Wind Taupunkt Windchill Windben
06.12.2023 09:40 2,2 C 93 % 1013,4 hPa 0,2 l/m 1,9 km/h (1 Bft) 1,2 C 2,2 C 8,0 km/h (2 Bft)
06.12.2023 09:30 2,1 C 93 % 1013,3 hPa 0,0 l/m 3,1 km/h (1 Bft) 1,1 C 2,1 C 8,0 km/h (2 Bft)
06.12.2023 09:20 2,1 C 93 % 1013,2 hPa 0,0 l/m 3,8 km/h (1 Bft) 1,1 C 2,1 C 8,0 km/h (2 Bft)
06.12.2023 09:10 2,1 C 93 % 1013,2 hPa 0,0 l/m 3,4 km/h (1 Bft) 1,1 C 2,1 C 9,7 km/h (2 Bft)
06.12.2023 09:00 2,0 C 93 % 1013,1 hPa 0,2 l/m 4,6 km/h (1 Bft) 1,0 C 2,0 C 9,7 km/h (2 Bft)
06.12.2023 08:50 2,0 C 93 % 1013,1 hPa 0,0 l/m 5,1 km/h (1 Bft) 1,0 C 2,0 C 11,3 km/h (2 Bft)
06.12.2023 08:40 2,0 C 93 % 1013,0 hPa 0,0 l/m 5,7 km/h (1 Bft) 1,0 C 2,0 C 12,9 km/h (3 Bft)
06.12.2023 08:30 1,9 C 93 % 1013,0 hPa 0,0 l/m 3,6 km/h (1 Bft) 0,9 C 1,9 C 9,7 km/h (2 Bft)
06.12.2023 08:20 1,8 C 93 % 1012,9 hPa 0,0 l/m 0,3 km/h (0 Bft) 0,8 C 1,8 C 1,6 km/h (1 Bft)
06.12.2023 08:10 1,7 C 93 % 1012,9 hPa 0,0 l/m 1,7 km/h (1 Bft) 0,7 C 1,7 C 4,8 km/h (1 Bft)
06.12.2023 08:00 1,6 C 93 % 1012,8 hPa 0,0 l/m 1,5 km/h (1 Bft) 0,6 C 1,6 C 4,8 km/h (1 Bft)
06.12.2023 07:50 1,5 C 93 % 1012,7 hPa 0,0 l/m 0,0 km/h (0 Bft) 0,5 C 1,5 C 1,6 km/h (1 Bft)
06.12.2023 07:40 1,5 C 93 % 1012,6 hPa 0,2 l/m 0,4 km/h (0 Bft) 0,5 C 1,5 C 3,2 km/h (1 Bft)
06.12.2023 07:30 1,4 C 93 % 1012,5 hPa 0,0 l/m 1,5 km/h (1 Bft) 0,4 C 1,4 C 6,4 km/h (2 Bft)
06.12.2023 07:20 1,4 C 93 % 1012,5 hPa 0,0 l/m 0,5 km/h (0 Bft) 0,4 C 1,4 C 3,2 km/h (1 Bft)
06.12.2023 07:10 1,3 C 93 % 1012,4 hPa 0,0 l/m 0,3 km/h (0 Bft) 0,3 C 1,3 C 4,8 km/h (1 Bft)
06.12.2023 07:00 1,3 C 93 % 1012,3 hPa 0,2 l/m 0,3 km/h (0 Bft) 0,3 C 1,3 C 4,8 km/h (1 Bft)
06.12.2023 06:50 1,2 C 93 % 1012,3 hPa 0,0 l/m 1,0 km/h (0 Bft) 0,2 C 1,2 C 4,8 km/h (1 Bft)
06.12.2023 06:40 1,2 C 93 % 1012,3 hPa 0,0 l/m 2,9 km/h (1 Bft) 0,2 C 1,2 C 8,0 km/h (2 Bft)
06.12.2023 06:30 1,2 C 93 % 1012,3 hPa 0,2 l/m 1,6 km/h (1 Bft) 0,2 C 1,2 C 4,8 km/h (1 Bft)
06.12.2023 06:20 1,3 C 93 % 1012,2 hPa 0,0 l/m 3,8 km/h (1 Bft) 0,3 C 1,3 C 8,0 km/h (2 Bft)
_ Min-Zeit 03:20 00:00 00:50 - 04:10 03:20 03:20 04:10
Minimum _ 1,2 C 90 % 1011,2 hPa - 0,0 km/h (0 Bft) 0,0 C 1,2 C 0,0 km/h (0 Bft)
_ Max-Zeit 00:00 04:10 09:40 00:20 08:40 09:40 00:00 00:00
Maximum _ 2,2 C 93 % 1013,4 hPa 0,4 l/m 5,7 km/h
S (1 Bft)
1,2 C 2,2 C 16,1 km/h
S-SO (3 Bft)
Durchschnitt _ 1,6 C 92 % 1012,0 hPa #4,0 l/m 2,3 km/h (1 Bft) 0,5 C 1,6 C 7,6 km/h (2 Bft)